sensor_id;sensor_type;location;lat;lon;timestamp;temperature;humidity
14283;DHT22;7225;59.282;18.344;2023-02-07T00:01:20;1.00;99.90
14283;DHT22;7225;59.282;18.344;2023-02-07T00:03:47;1.00;99.90
14283;DHT22;7225;59.282;18.344;2023-02-07T00:06:24;0.90;99.90
14283;DHT22;7225;59.282;18.344;2023-02-07T00:08:52;0.90;99.90
14283;DHT22;7225;59.282;18.344;2023-02-07T00:11:21;1.00;99.90
14283;DHT22;7225;59.282;18.344;2023-02-07T00:13:51;1.00;99.90
14283;DHT22;7225;59.282;18.344;2023-02-07T00:16:19;1.00;99.90
14283;DHT22;7225;59.282;18.344;2023-02-07T00:18:46;1.00;99.90
14283;DHT22;7225;59.282;18.344;2023-02-07T00:21:20;1.00;99.90
14283;DHT22;7225;59.282;18.344;2023-02-07T00:23:48;1.10;99.90
14283;DHT22;7225;59.282;18.344;2023-02-07T00:26:16;1.10;99.90
14283;DHT22;7225;59.282;18.344;2023-02-07T00:28:44;1.10;99.90
14283;DHT22;7225;59.282;18.344;2023-02-07T00:31:21;1.10;99.90
14283;DHT22;7225;59.282;18.344;2023-02-07T00:33:49;1.10;99.90
14283;DHT22;7225;59.282;18.344;2023-02-07T00:36:19;1.10;99.90
14283;DHT22;7225;59.282;18.344;2023-02-07T00:38:46;1.20;99.90
14283;DHT22;7225;59.282;18.344;2023-02-07T00:41:14;1.20;99.90
14283;DHT22;7225;59.282;18.344;2023-02-07T00:43:46;1.10;99.90
14283;DHT22;7225;59.282;18.344;2023-02-07T00:46:15;1.20;99.90
14283;DHT22;7225;59.282;18.344;2023-02-07T00:48:42;1.20;99.90
14283;DHT22;7225;59.282;18.344;2023-02-07T00:51:10;1.20;99.90
14283;DHT22;7225;59.282;18.344;2023-02-07T00:53:39;1.20;99.90
14283;DHT22;7225;59.282;18.344;2023-02-07T00:56:07;1.30;99.90
14283;DHT22;7225;59.282;18.344;2023-02-07T00:58:35;1.30;99.90
14283;DHT22;7225;59.282;18.344;2023-02-07T01:01:03;1.30;99.90
14283;DHT22;7225;59.282;18.344;2023-02-07T01:03:30;1.30;99.90
14283;DHT22;7225;59.282;18.344;2023-02-07T01:05:57;1.30;99.90
14283;DHT22;7225;59.282;18.344;2023-02-07T01:08:24;1.30;99.90
14283;DHT22;7225;59.282;18.344;2023-02-07T01:10:51;1.40;99.90
14283;DHT22;7225;59.282;18.344;2023-02-07T01:13:18;1.40;99.90
14283;DHT22;7225;59.282;18.344;2023-02-07T01:15:47;1.40;99.90
14283;DHT22;7225;59.282;18.344;2023-02-07T01:18:14;1.40;99.90
14283;DHT22;7225;59.282;18.344;2023-02-07T01:20:41;1.50;99.90
14283;DHT22;7225;59.282;18.344;2023-02-07T01:23:09;1.50;99.90
14283;DHT22;7225;59.282;18.344;2023-02-07T01:25:37;1.40;99.90
14283;DHT22;7225;59.282;18.344;2023-02-07T01:28:05;1.50;99.90
14283;DHT22;7225;59.282;18.344;2023-02-07T01:30:32;1.50;99.90
14283;DHT22;7225;59.282;18.344;2023-02-07T01:32:59;1.60;99.90
14283;DHT22;7225;59.282;18.344;2023-02-07T01:35:26;1.60;99.90
14283;DHT22;7225;59.282;18.344;2023-02-07T01:37:53;1.60;99.90
14283;DHT22;7225;59.282;18.344;2023-02-07T01:40:20;1.60;99.90
14283;DHT22;7225;59.282;18.344;2023-02-07T01:42:47;1.60;99.90
14283;DHT22;7225;59.282;18.344;2023-02-07T01:45:28;1.60;99.90
14283;DHT22;7225;59.282;18.344;2023-02-07T01:47:59;1.70;99.90
14283;DHT22;7225;59.282;18.344;2023-02-07T01:50:28;1.70;99.90
14283;DHT22;7225;59.282;18.344;2023-02-07T01:52:57;1.80;99.90
14283;DHT22;7225;59.282;18.344;2023-02-07T01:55:30;1.80;99.90
14283;DHT22;7225;59.282;18.344;2023-02-07T01:57:58;1.80;99.90
14283;DHT22;7225;59.282;18.344;2023-02-07T02:00:26;1.80;99.90
14283;DHT22;7225;59.282;18.344;2023-02-07T02:02:53;1.80;99.90
14283;DHT22;7225;59.282;18.344;2023-02-07T02:05:21;1.80;99.90
14283;DHT22;7225;59.282;18.344;2023-02-07T02:07:49;1.90;99.90
14283;DHT22;7225;59.282;18.344;2023-02-07T02:10:20;1.90;99.90
14283;DHT22;7225;59.282;18.344;2023-02-07T02:15:58;1.90;99.90
14283;DHT22;7225;59.282;18.344;2023-02-07T02:19:17;1.90;99.90
14283;DHT22;7225;59.282;18.344;2023-02-07T02:33:16;2.00;99.90
14283;DHT22;7225;59.282;18.344;2023-02-07T02:41:18;2.10;99.90
14283;DHT22;7225;59.282;18.344;2023-02-07T02:44:09;2.00;99.90
14283;DHT22;7225;59.282;18.344;2023-02-07T02:46:39;2.00;99.90
14283;DHT22;7225;59.282;18.344;2023-02-07T02:49:09;2.00;99.90
14283;DHT22;7225;59.282;18.344;2023-02-07T02:51:37;2.00;99.90
14283;DHT22;7225;59.282;18.344;2023-02-07T02:54:28;2.00;99.90
14283;DHT22;7225;59.282;18.344;2023-02-07T03:11:17;2.10;99.90
14283;DHT22;7225;59.282;18.344;2023-02-07T03:16:32;2.10;99.90
14283;DHT22;7225;59.282;18.344;2023-02-07T03:19:10;2.10;99.90
14283;DHT22;7225;59.282;18.344;2023-02-07T03:21:53;2.20;99.90
14283;DHT22;7225;59.282;18.344;2023-02-07T03:24:32;2.20;99.90
14283;DHT22;7225;59.282;18.344;2023-02-07T03:27:03;2.20;99.90
14283;DHT22;7225;59.282;18.344;2023-02-07T03:29:35;2.20;99.90
14283;DHT22;7225;59.282;18.344;2023-02-07T03:32:05;2.20;99.90
14283;DHT22;7225;59.282;18.344;2023-02-07T03:34:48;2.20;99.90
14283;DHT22;7225;59.282;18.344;2023-02-07T03:39:53;2.30;99.90
14283;DHT22;7225;59.282;18.344;2023-02-07T03:43:02;2.30;99.90
14283;DHT22;7225;59.282;18.344;2023-02-07T03:45:30;2.30;99.90
14283;DHT22;7225;59.282;18.344;2023-02-07T03:47:57;2.30;99.90
14283;DHT22;7225;59.282;18.344;2023-02-07T03:50:24;2.30;99.90
14283;DHT22;7225;59.282;18.344;2023-02-07T03:52:51;2.30;99.90
14283;DHT22;7225;59.282;18.344;2023-02-07T03:55:18;2.30;99.90
14283;DHT22;7225;59.282;18.344;2023-02-07T03:57:44;2.30;99.90
14283;DHT22;7225;59.282;18.344;2023-02-07T04:00:12;2.40;99.90
14283;DHT22;7225;59.282;18.344;2023-02-07T04:02:40;2.40;99.90
14283;DHT22;7225;59.282;18.344;2023-02-07T04:05:07;2.40;99.90
14283;DHT22;7225;59.282;18.344;2023-02-07T04:07:34;2.40;99.90
14283;DHT22;7225;59.282;18.344;2023-02-07T04:10:01;2.50;99.90
14283;DHT22;7225;59.282;18.344;2023-02-07T04:12:29;2.50;99.90
14283;DHT22;7225;59.282;18.344;2023-02-07T04:15:02;2.50;99.90
14283;DHT22;7225;59.282;18.344;2023-02-07T04:17:30;2.50;99.90
14283;DHT22;7225;59.282;18.344;2023-02-07T04:19:57;2.50;99.90
14283;DHT22;7225;59.282;18.344;2023-02-07T04:22:24;2.50;99.90
14283;DHT22;7225;59.282;18.344;2023-02-07T04:24:51;2.50;99.90
14283;DHT22;7225;59.282;18.344;2023-02-07T04:27:18;2.60;99.90
14283;DHT22;7225;59.282;18.344;2023-02-07T04:29:45;2.50;99.90
14283;DHT22;7225;59.282;18.344;2023-02-07T04:32:12;2.60;99.90
14283;DHT22;7225;59.282;18.344;2023-02-07T04:34:39;2.60;99.90
14283;DHT22;7225;59.282;18.344;2023-02-07T04:37:06;2.60;99.90
14283;DHT22;7225;59.282;18.344;2023-02-07T04:39:33;2.60;99.90
14283;DHT22;7225;59.282;18.344;2023-02-07T04:42:00;2.60;99.90
14283;DHT22;7225;59.282;18.344;2023-02-07T04:44:27;2.60;99.90
14283;DHT22;7225;59.282;18.344;2023-02-07T04:46:54;2.70;99.90
14283;DHT22;7225;59.282;18.344;2023-02-07T04:49:21;2.70;99.90
14283;DHT22;7225;59.282;18.344;2023-02-07T04:51:48;2.60;99.90
14283;DHT22;7225;59.282;18.344;2023-02-07T04:54:15;2.70;99.90
14283;DHT22;7225;59.282;18.344;2023-02-07T04:56:41;2.70;99.90
14283;DHT22;7225;59.282;18.344;2023-02-07T04:59:08;2.70;99.90
14283;DHT22;7225;59.282;18.344;2023-02-07T05:01:35;2.70;99.90
14283;DHT22;7225;59.282;18.344;2023-02-07T05:04:02;2.70;99.90
14283;DHT22;7225;59.282;18.344;2023-02-07T05:06:29;2.70;99.90
14283;DHT22;7225;59.282;18.344;2023-02-07T05:08:56;2.70;99.90
14283;DHT22;7225;59.282;18.344;2023-02-07T05:11:23;2.70;99.90
14283;DHT22;7225;59.282;18.344;2023-02-07T05:13:50;2.70;99.90
14283;DHT22;7225;59.282;18.344;2023-02-07T05:16:17;2.70;99.90
14283;DHT22;7225;59.282;18.344;2023-02-07T05:18:44;2.70;99.90
14283;DHT22;7225;59.282;18.344;2023-02-07T05:21:11;2.80;99.90
14283;DHT22;7225;59.282;18.344;2023-02-07T05:23:38;2.80;99.90
14283;DHT22;7225;59.282;18.344;2023-02-07T05:26:05;2.80;99.90
14283;DHT22;7225;59.282;18.344;2023-02-07T05:28:32;2.80;99.90
14283;DHT22;7225;59.282;18.344;2023-02-07T05:30:59;2.80;99.90
14283;DHT22;7225;59.282;18.344;2023-02-07T05:33:26;2.80;99.90
14283;DHT22;7225;59.282;18.344;2023-02-07T05:35:53;2.80;99.90
14283;DHT22;7225;59.282;18.344;2023-02-07T05:38:20;2.80;99.90
14283;DHT22;7225;59.282;18.344;2023-02-07T05:40:48;2.80;99.90
14283;DHT22;7225;59.282;18.344;2023-02-07T05:43:15;2.80;99.90
14283;DHT22;7225;59.282;18.344;2023-02-07T05:45:42;2.80;99.90
14283;DHT22;7225;59.282;18.344;2023-02-07T05:48:12;2.90;99.90
14283;DHT22;7225;59.282;18.344;2023-02-07T05:50:39;2.90;99.90
14283;DHT22;7225;59.282;18.344;2023-02-07T05:53:07;2.90;99.90
14283;DHT22;7225;59.282;18.344;2023-02-07T05:55:35;2.90;99.90
14283;DHT22;7225;59.282;18.344;2023-02-07T05:58:03;2.90;99.90
14283;DHT22;7225;59.282;18.344;2023-02-07T06:00:30;2.90;99.90
14283;DHT22;7225;59.282;18.344;2023-02-07T06:02:57;2.90;99.90
14283;DHT22;7225;59.282;18.344;2023-02-07T06:05:24;2.90;99.90
14283;DHT22;7225;59.282;18.344;2023-02-07T06:07:51;2.90;99.90
14283;DHT22;7225;59.282;18.344;2023-02-07T06:10:18;2.90;99.90
14283;DHT22;7225;59.282;18.344;2023-02-07T06:12:45;2.90;99.90
14283;DHT22;7225;59.282;18.344;2023-02-07T06:15:12;2.90;99.90
14283;DHT22;7225;59.282;18.344;2023-02-07T06:17:39;3.00;99.90
14283;DHT22;7225;59.282;18.344;2023-02-07T06:20:07;2.90;99.90
14283;DHT22;7225;59.282;18.344;2023-02-07T06:22:34;2.90;99.90
14283;DHT22;7225;59.282;18.344;2023-02-07T06:25:01;3.00;99.90
14283;DHT22;7225;59.282;18.344;2023-02-07T06:27:28;3.00;99.90
14283;DHT22;7225;59.282;18.344;2023-02-07T06:29:55;3.00;99.90
14283;DHT22;7225;59.282;18.344;2023-02-07T06:32:22;3.00;99.90
14283;DHT22;7225;59.282;18.344;2023-02-07T06:34:49;3.00;99.90
14283;DHT22;7225;59.282;18.344;2023-02-07T06:37:16;3.00;99.90
14283;DHT22;7225;59.282;18.344;2023-02-07T06:39:42;3.00;99.90
14283;DHT22;7225;59.282;18.344;2023-02-07T06:42:09;3.00;99.90
14283;DHT22;7225;59.282;18.344;2023-02-07T06:44:36;3.00;99.90
14283;DHT22;7225;59.282;18.344;2023-02-07T06:47:03;3.00;99.90
14283;DHT22;7225;59.282;18.344;2023-02-07T06:49:30;3.00;99.90
14283;DHT22;7225;59.282;18.344;2023-02-07T06:51:57;3.00;99.90
14283;DHT22;7225;59.282;18.344;2023-02-07T06:54:24;3.00;99.90
14283;DHT22;7225;59.282;18.344;2023-02-07T06:56:51;3.00;99.90
14283;DHT22;7225;59.282;18.344;2023-02-07T06:59:18;3.00;99.90
14283;DHT22;7225;59.282;18.344;2023-02-07T07:01:45;3.00;99.90
14283;DHT22;7225;59.282;18.344;2023-02-07T07:04:15;3.10;99.90
14283;DHT22;7225;59.282;18.344;2023-02-07T07:06:42;3.10;99.90
14283;DHT22;7225;59.282;18.344;2023-02-07T07:09:09;3.10;99.90
14283;DHT22;7225;59.282;18.344;2023-02-07T07:11:36;3.00;99.90
14283;DHT22;7225;59.282;18.344;2023-02-07T07:14:09;3.10;99.90
14283;DHT22;7225;59.282;18.344;2023-02-07T07:16:36;3.10;99.90
14283;DHT22;7225;59.282;18.344;2023-02-07T07:19:03;3.10;99.90
14283;DHT22;7225;59.282;18.344;2023-02-07T07:21:30;3.10;99.90
14283;DHT22;7225;59.282;18.344;2023-02-07T07:23:58;3.10;99.90
14283;DHT22;7225;59.282;18.344;2023-02-07T07:26:24;3.10;99.90
14283;DHT22;7225;59.282;18.344;2023-02-07T07:28:59;3.10;99.90
14283;DHT22;7225;59.282;18.344;2023-02-07T07:31:26;3.10;99.90
14283;DHT22;7225;59.282;18.344;2023-02-07T07:33:53;3.10;99.90
14283;DHT22;7225;59.282;18.344;2023-02-07T07:36:20;3.20;99.90
14283;DHT22;7225;59.282;18.344;2023-02-07T07:38:47;3.10;99.90
14283;DHT22;7225;59.282;18.344;2023-02-07T07:41:16;3.10;99.90
14283;DHT22;7225;59.282;18.344;2023-02-07T07:43:43;3.10;99.90
14283;DHT22;7225;59.282;18.344;2023-02-07T07:46:10;3.10;99.90
14283;DHT22;7225;59.282;18.344;2023-02-07T07:48:37;3.10;99.90
14283;DHT22;7225;59.282;18.344;2023-02-07T07:51:04;3.20;99.90
14283;DHT22;7225;59.282;18.344;2023-02-07T07:53:31;3.20;99.90
14283;DHT22;7225;59.282;18.344;2023-02-07T07:55:58;3.20;99.90
14283;DHT22;7225;59.282;18.344;2023-02-07T07:58:26;3.20;99.90
14283;DHT22;7225;59.282;18.344;2023-02-07T08:00:53;3.20;99.90
14283;DHT22;7225;59.282;18.344;2023-02-07T08:03:21;3.30;99.90
14283;DHT22;7225;59.282;18.344;2023-02-07T08:05:48;3.20;99.90
14283;DHT22;7225;59.282;18.344;2023-02-07T08:08:16;3.30;99.90
14283;DHT22;7225;59.282;18.344;2023-02-07T08:10:46;3.30;99.90
14283;DHT22;7225;59.282;18.344;2023-02-07T08:13:13;3.30;99.90
14283;DHT22;7225;59.282;18.344;2023-02-07T08:15:40;3.30;99.90
14283;DHT22;7225;59.282;18.344;2023-02-07T08:18:07;3.30;99.90
14283;DHT22;7225;59.282;18.344;2023-02-07T08:20:34;3.30;99.90
14283;DHT22;7225;59.282;18.344;2023-02-07T08:23:02;3.30;99.90
14283;DHT22;7225;59.282;18.344;2023-02-07T08:25:29;3.30;99.90
14283;DHT22;7225;59.282;18.344;2023-02-07T08:27:56;3.40;99.90
14283;DHT22;7225;59.282;18.344;2023-02-07T08:30:23;3.40;99.90
14283;DHT22;7225;59.282;18.344;2023-02-07T08:32:51;3.40;99.90
14283;DHT22;7225;59.282;18.344;2023-02-07T08:35:18;3.40;99.90
14283;DHT22;7225;59.282;18.344;2023-02-07T08:37:45;3.40;99.90
14283;DHT22;7225;59.282;18.344;2023-02-07T08:40:12;3.40;99.90
14283;DHT22;7225;59.282;18.344;2023-02-07T08:42:40;3.40;99.90
14283;DHT22;7225;59.282;18.344;2023-02-07T08:45:07;3.40;99.90
14283;DHT22;7225;59.282;18.344;2023-02-07T08:47:34;3.40;99.90
14283;DHT22;7225;59.282;18.344;2023-02-07T08:50:03;3.40;99.90
14283;DHT22;7225;59.282;18.344;2023-02-07T08:52:30;3.40;99.90
14283;DHT22;7225;59.282;18.344;2023-02-07T08:54:57;3.40;99.90
14283;DHT22;7225;59.282;18.344;2023-02-07T08:57:24;3.40;99.90
14283;DHT22;7225;59.282;18.344;2023-02-07T08:59:52;3.40;99.90
14283;DHT22;7225;59.282;18.344;2023-02-07T09:02:19;3.40;99.90
14283;DHT22;7225;59.282;18.344;2023-02-07T09:04:47;3.40;99.90
14283;DHT22;7225;59.282;18.344;2023-02-07T09:07:14;3.40;99.90
14283;DHT22;7225;59.282;18.344;2023-02-07T09:09:41;3.50;99.90
14283;DHT22;7225;59.282;18.344;2023-02-07T09:12:09;3.50;99.90
14283;DHT22;7225;59.282;18.344;2023-02-07T09:14:37;3.50;99.90
14283;DHT22;7225;59.282;18.344;2023-02-07T09:17:06;3.50;99.90
14283;DHT22;7225;59.282;18.344;2023-02-07T09:19:34;3.50;99.90
14283;DHT22;7225;59.282;18.344;2023-02-07T09:22:02;3.50;99.90
14283;DHT22;7225;59.282;18.344;2023-02-07T09:24:29;3.60;99.90
14283;DHT22;7225;59.282;18.344;2023-02-07T09:26:56;3.50;99.90
14283;DHT22;7225;59.282;18.344;2023-02-07T09:29:23;3.60;99.90
14283;DHT22;7225;59.282;18.344;2023-02-07T09:31:50;3.60;99.90
14283;DHT22;7225;59.282;18.344;2023-02-07T09:34:17;3.60;99.90
14283;DHT22;7225;59.282;18.344;2023-02-07T09:36:45;3.60;99.90
14283;DHT22;7225;59.282;18.344;2023-02-07T09:39:12;3.60;99.90
14283;DHT22;7225;59.282;18.344;2023-02-07T09:47:22;3.60;99.90
14283;DHT22;7225;59.282;18.344;2023-02-07T09:50:24;3.60;99.90
14283;DHT22;7225;59.282;18.344;2023-02-07T09:52:59;3.60;99.90
14283;DHT22;7225;59.282;18.344;2023-02-07T09:55:36;3.60;99.90
14283;DHT22;7225;59.282;18.344;2023-02-07T09:58:29;3.60;99.90
14283;DHT22;7225;59.282;18.344;2023-02-07T10:03:41;3.60;99.90
14283;DHT22;7225;59.282;18.344;2023-02-07T10:06:16;3.60;99.90
14283;DHT22;7225;59.282;18.344;2023-02-07T10:08:52;3.60;99.90
14283;DHT22;7225;59.282;18.344;2023-02-07T10:27:30;3.60;99.90
14283;DHT22;7225;59.282;18.344;2023-02-07T10:32:45;3.50;99.90
14283;DHT22;7225;59.282;18.344;2023-02-07T10:35:23;3.50;99.90
14283;DHT22;7225;59.282;18.344;2023-02-07T10:37:54;3.50;99.90
14283;DHT22;7225;59.282;18.344;2023-02-07T10:41:02;3.50;99.90
14283;DHT22;7225;59.282;18.344;2023-02-07T10:43:29;3.50;99.90
14283;DHT22;7225;59.282;18.344;2023-02-07T10:46:19;3.50;99.90
14283;DHT22;7225;59.282;18.344;2023-02-07T10:48:47;3.50;99.90
14283;DHT22;7225;59.282;18.344;2023-02-07T10:51:25;3.50;99.90
14283;DHT22;7225;59.282;18.344;2023-02-07T10:56:39;3.50;99.90
14283;DHT22;7225;59.282;18.344;2023-02-07T11:02:02;3.50;99.90
14283;DHT22;7225;59.282;18.344;2023-02-07T11:04:36;3.50;99.90
14283;DHT22;7225;59.282;18.344;2023-02-07T11:07:05;3.50;99.90
14283;DHT22;7225;59.282;18.344;2023-02-07T11:09:33;3.60;99.90
14283;DHT22;7225;59.282;18.344;2023-02-07T11:12:33;3.60;99.90
14283;DHT22;7225;59.282;18.344;2023-02-07T11:15:06;3.60;99.90
14283;DHT22;7225;59.282;18.344;2023-02-07T11:17:34;3.60;99.90
14283;DHT22;7225;59.282;18.344;2023-02-07T11:20:04;3.60;99.90
14283;DHT22;7225;59.282;18.344;2023-02-07T11:22:31;3.60;99.90
14283;DHT22;7225;59.282;18.344;2023-02-07T11:25:04;3.60;99.90
14283;DHT22;7225;59.282;18.344;2023-02-07T11:27:40;3.60;99.90
14283;DHT22;7225;59.282;18.344;2023-02-07T11:30:15;3.60;99.90
14283;DHT22;7225;59.282;18.344;2023-02-07T11:33:00;3.60;99.90
14283;DHT22;7225;59.282;18.344;2023-02-07T11:35:28;3.60;99.90
14283;DHT22;7225;59.282;18.344;2023-02-07T11:37:59;3.60;99.90
14283;DHT22;7225;59.282;18.344;2023-02-07T11:45:36;3.60;99.90
14283;DHT22;7225;59.282;18.344;2023-02-07T11:48:04;3.70;99.90
14283;DHT22;7225;59.282;18.344;2023-02-07T11:50:38;3.60;99.90
14283;DHT22;7225;59.282;18.344;2023-02-07T11:53:07;3.70;99.90
14283;DHT22;7225;59.282;18.344;2023-02-07T11:55:43;3.60;99.90
14283;DHT22;7225;59.282;18.344;2023-02-07T11:58:33;3.60;99.90
14283;DHT22;7225;59.282;18.344;2023-02-07T12:01:06;3.60;99.90
14283;DHT22;7225;59.282;18.344;2023-02-07T12:03:39;3.60;99.90
14283;DHT22;7225;59.282;18.344;2023-02-07T12:06:13;3.60;99.90
14283;DHT22;7225;59.282;18.344;2023-02-07T12:08:44;3.60;99.90
14283;DHT22;7225;59.282;18.344;2023-02-07T12:11:18;3.60;99.90
14283;DHT22;7225;59.282;18.344;2023-02-07T12:14:23;3.60;99.90
14283;DHT22;7225;59.282;18.344;2023-02-07T12:16:51;3.60;99.90
14283;DHT22;7225;59.282;18.344;2023-02-07T12:19:30;3.60;99.90
14283;DHT22;7225;59.282;18.344;2023-02-07T12:24:39;3.60;99.90
14283;DHT22;7225;59.282;18.344;2023-02-07T12:27:15;3.60;99.90
14283;DHT22;7225;59.282;18.344;2023-02-07T12:33:43;3.60;99.90
14283;DHT22;7225;59.282;18.344;2023-02-07T12:41:31;3.60;99.90
14283;DHT22;7225;59.282;18.344;2023-02-07T12:44:22;3.70;99.90
14283;DHT22;7225;59.282;18.344;2023-02-07T12:46:56;3.70;99.90
14283;DHT22;7225;59.282;18.344;2023-02-07T13:04:01;3.70;99.90
14283;DHT22;7225;59.282;18.344;2023-02-07T13:09:26;3.70;99.90
14283;DHT22;7225;59.282;18.344;2023-02-07T13:12:16;3.70;99.90
14283;DHT22;7225;59.282;18.344;2023-02-07T13:18:05;3.70;99.90
14283;DHT22;7225;59.282;18.344;2023-02-07T13:24:34;3.70;99.90
14283;DHT22;7225;59.282;18.344;2023-02-07T13:27:08;3.70;99.90
14283;DHT22;7225;59.282;18.344;2023-02-07T13:29:38;3.70;99.90
14283;DHT22;7225;59.282;18.344;2023-02-07T13:32:26;3.70;99.90
14283;DHT22;7225;59.282;18.344;2023-02-07T13:35:20;3.70;99.90
14283;DHT22;7225;59.282;18.344;2023-02-07T13:38:38;3.70;99.90
14283;DHT22;7225;59.282;18.344;2023-02-07T13:41:18;3.70;99.90
14283;DHT22;7225;59.282;18.344;2023-02-07T13:47:09;3.70;99.90
14283;DHT22;7225;59.282;18.344;2023-02-07T13:52:25;3.70;99.90
14283;DHT22;7225;59.282;18.344;2023-02-07T13:57:57;3.60;99.90
14283;DHT22;7225;59.282;18.344;2023-02-07T14:03:21;3.60;99.90
14283;DHT22;7225;59.282;18.344;2023-02-07T14:05:49;3.70;99.90
14283;DHT22;7225;59.282;18.344;2023-02-07T14:10:55;3.70;99.90
14283;DHT22;7225;59.282;18.344;2023-02-07T14:18:37;3.70;99.90
14283;DHT22;7225;59.282;18.344;2023-02-07T14:32:24;3.80;99.90
14283;DHT22;7225;59.282;18.344;2023-02-07T14:40:24;3.80;99.90
14283;DHT22;7225;59.282;18.344;2023-02-07T14:43:05;3.80;99.90
14283;DHT22;7225;59.282;18.344;2023-02-07T14:45:36;3.80;99.90
14283;DHT22;7225;59.282;18.344;2023-02-07T14:48:06;3.80;99.90
14283;DHT22;7225;59.282;18.344;2023-02-07T14:50:53;3.80;99.90
14283;DHT22;7225;59.282;18.344;2023-02-07T14:53:20;3.80;99.90
14283;DHT22;7225;59.282;18.344;2023-02-07T14:55:53;3.80;99.90
14283;DHT22;7225;59.282;18.344;2023-02-07T14:58:28;3.80;99.90
14283;DHT22;7225;59.282;18.344;2023-02-07T15:00:59;3.80;99.90
14283;DHT22;7225;59.282;18.344;2023-02-07T15:03:30;3.80;99.90
14283;DHT22;7225;59.282;18.344;2023-02-07T15:06:02;3.80;99.90
14283;DHT22;7225;59.282;18.344;2023-02-07T15:08:31;3.80;99.90
14283;DHT22;7225;59.282;18.344;2023-02-07T15:11:10;3.80;99.90
14283;DHT22;7225;59.282;18.344;2023-02-07T15:19:02;3.90;99.90
14283;DHT22;7225;59.282;18.344;2023-02-07T15:21:36;3.90;99.90
14283;DHT22;7225;59.282;18.344;2023-02-07T15:24:05;3.90;99.90
14283;DHT22;7225;59.282;18.344;2023-02-07T15:26:34;3.90;99.90
14283;DHT22;7225;59.282;18.344;2023-02-07T15:29:05;3.90;99.90
14283;DHT22;7225;59.282;18.344;2023-02-07T15:31:39;3.90;99.90
14283;DHT22;7225;59.282;18.344;2023-02-07T15:34:14;3.90;99.90
14283;DHT22;7225;59.282;18.344;2023-02-07T15:36:43;3.90;99.90
14283;DHT22;7225;59.282;18.344;2023-02-07T15:39:24;3.90;99.90
14283;DHT22;7225;59.282;18.344;2023-02-07T15:41:54;3.90;99.90
14283;DHT22;7225;59.282;18.344;2023-02-07T15:44:28;3.90;99.90
14283;DHT22;7225;59.282;18.344;2023-02-07T15:47:04;3.90;99.90
14283;DHT22;7225;59.282;18.344;2023-02-07T15:49:40;3.90;99.90
14283;DHT22;7225;59.282;18.344;2023-02-07T15:54:44;3.90;99.90
14283;DHT22;7225;59.282;18.344;2023-02-07T15:57:33;3.90;99.90
14283;DHT22;7225;59.282;18.344;2023-02-07T16:00:11;4.00;99.90
14283;DHT22;7225;59.282;18.344;2023-02-07T16:02:45;3.90;99.90
14283;DHT22;7225;59.282;18.344;2023-02-07T16:05:27;3.90;99.90
14283;DHT22;7225;59.282;18.344;2023-02-07T16:07:56;3.90;99.90
14283;DHT22;7225;59.282;18.344;2023-02-07T16:12:52;3.90;99.90
14283;DHT22;7225;59.282;18.344;2023-02-07T16:15:32;3.90;99.90
14283;DHT22;7225;59.282;18.344;2023-02-07T16:18:01;3.90;99.90
14283;DHT22;7225;59.282;18.344;2023-02-07T16:20:29;3.90;99.90
14283;DHT22;7225;59.282;18.344;2023-02-07T16:23:02;4.00;99.90
14283;DHT22;7225;59.282;18.344;2023-02-07T16:25:32;4.00;99.90
14283;DHT22;7225;59.282;18.344;2023-02-07T16:28:00;4.00;99.90
14283;DHT22;7225;59.282;18.344;2023-02-07T16:30:31;4.00;99.90
14283;DHT22;7225;59.282;18.344;2023-02-07T16:33:03;4.00;99.90
14283;DHT22;7225;59.282;18.344;2023-02-07T16:35:30;4.00;99.90
14283;DHT22;7225;59.282;18.344;2023-02-07T16:37:57;4.00;99.90
14283;DHT22;7225;59.282;18.344;2023-02-07T16:40:25;4.00;99.90
14283;DHT22;7225;59.282;18.344;2023-02-07T16:42:53;4.10;99.90
14283;DHT22;7225;59.282;18.344;2023-02-07T16:45:25;4.10;99.90
14283;DHT22;7225;59.282;18.344;2023-02-07T16:47:53;4.10;99.90
14283;DHT22;7225;59.282;18.344;2023-02-07T16:50:31;4.10;99.90
14283;DHT22;7225;59.282;18.344;2023-02-07T16:52:58;4.10;99.90
14283;DHT22;7225;59.282;18.344;2023-02-07T16:55:26;4.10;99.90
14283;DHT22;7225;59.282;18.344;2023-02-07T16:57:55;4.00;99.90
14283;DHT22;7225;59.282;18.344;2023-02-07T17:00:24;4.10;99.90
14283;DHT22;7225;59.282;18.344;2023-02-07T17:02:52;4.10;99.90
14283;DHT22;7225;59.282;18.344;2023-02-07T17:05:20;4.10;99.90
14283;DHT22;7225;59.282;18.344;2023-02-07T17:07:49;4.10;99.90
14283;DHT22;7225;59.282;18.344;2023-02-07T17:10:26;4.10;99.90
14283;DHT22;7225;59.282;18.344;2023-02-07T17:12:54;4.10;99.90
14283;DHT22;7225;59.282;18.344;2023-02-07T17:15:22;4.10;99.90
14283;DHT22;7225;59.282;18.344;2023-02-07T17:17:49;4.10;99.90
14283;DHT22;7225;59.282;18.344;2023-02-07T17:20:32;4.10;99.90
14283;DHT22;7225;59.282;18.344;2023-02-07T17:23:00;4.10;99.90
14283;DHT22;7225;59.282;18.344;2023-02-07T17:25:28;4.10;99.90
14283;DHT22;7225;59.282;18.344;2023-02-07T17:27:56;4.10;99.90
14283;DHT22;7225;59.282;18.344;2023-02-07T17:30:26;4.10;99.90
14283;DHT22;7225;59.282;18.344;2023-02-07T17:32:53;4.10;99.90
14283;DHT22;7225;59.282;18.344;2023-02-07T17:35:22;4.10;99.90
14283;DHT22;7225;59.282;18.344;2023-02-07T17:37:49;4.10;99.90
14283;DHT22;7225;59.282;18.344;2023-02-07T17:40:34;4.10;99.90
14283;DHT22;7225;59.282;18.344;2023-02-07T17:43:01;4.10;99.90
14283;DHT22;7225;59.282;18.344;2023-02-07T17:45:30;4.10;99.90
14283;DHT22;7225;59.282;18.344;2023-02-07T17:47:58;4.00;99.90
14283;DHT22;7225;59.282;18.344;2023-02-07T17:50:29;4.00;99.90
14283;DHT22;7225;59.282;18.344;2023-02-07T17:52:57;4.10;99.90
14283;DHT22;7225;59.282;18.344;2023-02-07T17:55:30;4.10;99.90
14283;DHT22;7225;59.282;18.344;2023-02-07T17:57:58;4.10;99.90
14283;DHT22;7225;59.282;18.344;2023-02-07T18:00:27;4.10;99.90
14283;DHT22;7225;59.282;18.344;2023-02-07T18:02:54;4.10;99.90
14283;DHT22;7225;59.282;18.344;2023-02-07T18:05:21;4.10;99.90
14283;DHT22;7225;59.282;18.344;2023-02-07T18:07:49;4.10;99.90
14283;DHT22;7225;59.282;18.344;2023-02-07T18:10:19;4.10;99.90
14283;DHT22;7225;59.282;18.344;2023-02-07T18:12:47;4.10;99.90
14283;DHT22;7225;59.282;18.344;2023-02-07T18:15:14;4.10;99.90
14283;DHT22;7225;59.282;18.344;2023-02-07T18:17:42;4.10;99.90
14283;DHT22;7225;59.282;18.344;2023-02-07T18:20:18;4.10;99.90
14283;DHT22;7225;59.282;18.344;2023-02-07T18:22:45;4.20;99.90
14283;DHT22;7225;59.282;18.344;2023-02-07T18:25:13;4.10;99.90
14283;DHT22;7225;59.282;18.344;2023-02-07T18:27:40;4.20;99.90
14283;DHT22;7225;59.282;18.344;2023-02-07T18:30:07;4.20;99.90
14283;DHT22;7225;59.282;18.344;2023-02-07T18:32:34;4.20;99.90
14283;DHT22;7225;59.282;18.344;2023-02-07T18:35:01;4.20;99.90
14283;DHT22;7225;59.282;18.344;2023-02-07T18:37:28;4.20;99.90
14283;DHT22;7225;59.282;18.344;2023-02-07T18:39:55;4.20;99.90
14283;DHT22;7225;59.282;18.344;2023-02-07T18:42:22;4.20;99.90
14283;DHT22;7225;59.282;18.344;2023-02-07T18:44:50;4.30;99.90
14283;DHT22;7225;59.282;18.344;2023-02-07T18:47:18;4.30;99.90